Login   Iscriviti    Portale ilVolo.it    Indice Forum    Aerofan.it PhotoGallery    Cerca    FAQ    Regolamento

Il meteo su Washington

AVIATION TOP 100 - www.avitop.com Avitop.com

Indice  »  Flight Crews Area  »  Meteo

 

 


Apri un nuovo argomento Rispondi all’argomento  [ 1 messaggio ] 
Autore Messaggio
 Oggetto del messaggio: TAF: diciture che non riesco a tradurre
 Messaggio Inviato: 06/10/2008, 10:15 
IT Support & Ops
IT Support & Ops
Avatar utente
Non connesso
Uomo
Iscritto il: 01/04/2008
Messaggi: 4106
Località: Winterthur (ZH)
Età: 47
Nel TAF per Innsbruck sotto riportato non riesco a decodificare le indicazioni TX e TN.
Qualcuno ne sa qualcosa?

Grazie!!


LOWI 060800Z 060918 09006KT 9999 SCT090 TX18/15Z TN09/09Z
BECMG 1618 VRB02KT

_________________
Cordiali saluti/Best regards/Mit freundliche Grüßen,
andrea
Software Sorcery Specialist


Top 
 Profilo  
 
Visualizza ultimi messaggi:  Ordina per  
 
Apri un nuovo argomento Rispondi all’argomento  [ 1 messaggio ] 

Indice  »  Flight Crews Area  »  Meteo


 

Chi c’è in linea

Visitano il forum: Nessuno e 2 ospiti

 
 

 
Non puoi aprire nuovi argomenti
Non puoi rispondere negli argomenti
Non puoi modificare i tuoi messaggi
Non puoi cancellare i tuoi messaggi
Non puoi inviare allegati

Cerca per:
Vai a: